Saeed Al-Juhani

Chefscout - Al-Shabab
5 Dez 2027
Sonntag
Verarbeitung

Persönlichkeit

Anpassungsfähigkeit (8) Ehrgeiz (6) Kontroverse (1) Loyalität (10) Druck (14) Professionalität (4) Fairness (6) Temperament (3)

Profil

Trainerstil Demokratisch
Lizenz Nationale B
Entschlossenheit 10
Menschenführung 11
Motivation 11
Disziplin 5
Arbeitszufriedenheit
100%
Ermüdung
0%
Rolle Chefscout
Gehalt 57.0K p/W
Vertrag 14.03.2028

Leistung

Verhalten Gut
Trainingseffektivität
38%
Spielerentwicklung
60%
Verletzungsprävention
60%
Taktische Umsetzung
45%

Letzte Ereignisse

Spieler begutachtet jetzt
Nahm an einer Scouting-Besprechung teil jetzt
Empfahl ein Transferziel jetzt
Nahm an einer Scouting-Besprechung teil jetzt
Spieler begutachtet jetzt
Spieler begutachtet 7T her
Spieler begutachtet 7T her
Spieler begutachtet 7T her

Aktuell beobachtet

165
Spieler Verein Status Fähigkeit Vertrauen Beobachtet Zuletzt beobachtet Letzte Stimme
Koen Casteels Al-Qadisiyah Aktiv 142 / 136 40% 3 03.12.2027 -
Nahuel Manganelli San Martín Aktiv 115 / 118 40% 4 03.12.2027 -
Mattia Perin Palermo Aktiv 151 / 142 40% 1 03.12.2027 -
Édouard Mendy Al-Ahli Aktiv 153 / 154 40% 5 02.12.2027 -
Roberto Ramírez Godoy Cruz Aktiv 115 / 117 40% 4 02.12.2027 -
Oliver Dovin Coventry City Aktiv 134 / 135 40% 1 02.12.2027 -
Emmanuel Gómez Riga Alvarado Aktiv 126 / 118 40% 7 01.12.2027 -
Nahuel Galardi Maipú Aktiv 113 / 113 40% 10 01.12.2027 -
Kewin Damac Aktiv 118 / 125 40% 2 01.12.2027 -
Nicolás Carrizo All Boys Aktiv 104 / 108 40% 11 29.11.2027 -
Lazarazu Otieno Kariobangi Sharks Aktiv 88 / 86 40% 5 26.11.2027 -
Alex Bass Peterborough United Aktiv 118 / 116 40% 1 26.11.2027 -
Grégoire Coudert Burnley Aktiv 134 / 131 40% 3 24.11.2027 -
Tomás Paredes Colón Aktiv 106 / 106 40% 3 23.11.2027 -
Will Dennis Milton Keynes Dons Aktiv 118 / 120 40% 2 23.11.2027 -
Luiz Artigas Aktiv 88 / 99 40% 1 22.11.2027 -
Maílson Al-Taawoun Aktiv 136 / 132 40% 1 22.11.2027 -
Jassim Al-Ashban Al-Orobah Aktiv 105 / 99 40% 1 20.11.2027 -
Francisco Coirolo Atenas Aktiv 110 / 107 40% 1 19.11.2027 -
Abdulraouf Al-Duqayl Al-Fayha Aktiv 96 / 96 40% 1 19.11.2027 -
Ahmad Al-Rehaili Al-Ettifaq Aktiv 102 / 97 40% 1 19.11.2027 -
Dinko Horkaš Al Wasl Aktiv 131 / 132 40% 5 18.11.2027 -
Anthony Moris Al-Khaleej Aktiv 127 / 123 40% 1 18.11.2027 -
Akpan Nsikak-Abong Kun Khalifat Aktiv 88 / 88 40% 6 13.11.2027 -
Yassine Bounou Al-Hilal Aktiv 145 / 155 40% 4 12.11.2027 -
Emiliano Bermúdez Oriental Aktiv 103 / 97 40% 3 12.11.2027 -
Victor Aznar Cádiz Aktiv 133 / 138 40% 1 12.11.2027 -
Brian Opondo Kakamega Homeboyz Aktiv 95 / 93 40% 5 11.11.2027 -
Kevin Ouru Mathare United Aktiv 89 / 79 40% 7 11.11.2027 -
Javier Bustillos Los Andes Aktiv 99 / 98 40% 2 11.11.2027 -
Gastón Fernández Chacarita Juniors Aktiv 107 / 106 40% 7 10.11.2027 -
Byrne Omondi Gor Mahia Aktiv 89 / 88 40% 4 10.11.2027 -
Khadime N'Diaye Kenya Police Aktiv 89 / 83 40% 7 09.11.2027 -
Fernando Pacheco Al-Faisaly Aktiv 137 / 132 40% 2 09.11.2027 -
Joaquín Silva Plaza Colonia Aktiv 112 / 110 40% 7 07.11.2027 -
Samuel Brolin Kalmar FF Aktiv 115 / 127 40% 6 07.11.2027 -
Levis Opiyo Bandari Aktiv 78 / 90 40% 3 04.11.2027 -
Fredrick Odhiambo Posta Rangers Aktiv 81 / 83 40% 2 03.11.2027 -
Agustín Lastra Estudiantes Aktiv 113 / 108 40% 1 03.11.2027 -
Nikita Haikin Dinamo Moscow Aktiv 138 / 137 40% 1 03.11.2027 -
Timothy Odhiambo Ulinzi Stars Aktiv 71 / 69 40% 2 01.11.2027 -
Santiago Rodríguez Fenix Aktiv 101 / 93 40% 4 29.10.2027 -
Adrian Šemper Al-Fateh Aktiv 132 / 138 40% 1 27.10.2027 -
Joseph Okoth Tusker Aktiv 88 / 72 40% 4 24.10.2027 -
Santiago Rojas Nacional Aktiv 114 / 113 40% 2 24.10.2027 -
Aarón Escandell Oviedo Aktiv 130 / 137 40% 1 24.10.2027 -
José Miers 12 de Octubre Aktiv 105 / 107 40% 2 23.10.2027 -
Juan Martín Rojas Morón Aktiv 121 / 116 40% 3 19.10.2027 -
Mikhail Kozakevich Dinamo Minsk Aktiv 101 / 110 40% 1 15.10.2027 -
Ali Al-Amri Hrvatski Dragovoljac Aktiv 91 / 93 40% 1 13.10.2027 -
Morgan Ambuka APS Bomet Aktiv 68 / 73 40% 4 11.10.2027 -
Stanislav Kleschuk Gomel Aktiv 88 / 103 40% 1 09.10.2027 -
Kirill Veidyger Neman Aktiv 86 / 94 40% 2 23.09.2027 -
Yegor Baburin Atyrau Aktiv 108 / 102 40% 3 20.09.2027 -
Abdullah Abdo IFK Norrkoping Aktiv 80 / 85 40% 1 16.09.2027 -
Humphrey Katasi AFC Leopards Aktiv 81 / 89 40% 1 15.09.2027 -
Evgeniy Abramovich Slavia Mozyr Aktiv 95 / 97 40% 1 15.09.2027 -
Bruno Varela Al-Hazem Aktiv 123 / 126 40% 1 09.09.2027 -
Maxwell Mulili Shabana Aktiv 76 / 73 40% 1 09.09.2027 -
Stanislav Letsko Volna Pinsk Aktiv 86 / 78 40% 1 07.09.2027 -
Denis Shpakovskiy Baranovichi Aktiv 84 / 84 40% 1 06.09.2027 -
Khadime N'Diaye Kenya Police Verloren 90 / 96 40% 1 30.08.2027 -
Akpan Nsikak-Abong Kun Khalifat Verloren 90 / 88 40% 1 30.08.2027 -
Ricardo Mathias Al-Ahli Aktiv 127 / 131 40% 1 23.08.2027 -
Lautaro Gordillo Colegiales Verloren 112 / 116 40% 1 23.08.2027 -
Jônatas Al Ain Aktiv 118 / 128 40% 1 23.08.2027 -
Aboubacar Bah Al-Hazem Aktiv 122 / 125 72% 1 16.08.2027 Befürworten
Alejandro Cantero Huesca Aktiv 122 / 114 40% 1 02.08.2027 -
David Okereke Cremonese Verloren 124 / 122 40% 1 02.08.2027 -
Abu Kamara Portsmouth Verloren 123 / 120 40% 1 02.08.2027 -
Lukas Nmecha Leeds United Aktiv 132 / 130 40% 1 26.07.2027 -
Lucas Ríos Atlanta Verhandlung 113 / 117 40% 1 26.07.2027 -
Fahad Al-Zubaidi Al-Fateh Aktiv 119 / 115 40% 1 26.07.2027 -
Wilfried Kanga Al-Fateh Aktiv 128 / 121 40% 1 12.07.2027 -
Egas Cacintura Akhmat Grozny Verhandlung 122 / 117 40% 1 12.07.2027 -
Evgeny Staver Rubin Aktiv 117 / 106 40% 2 05.07.2027 -
Joaquín Silva Plaza Colonia Verloren 103 / 103 40% 1 28.06.2027 -
Nahuel Galardi Maipú Verloren 106 / 119 40% 1 13.06.2027 -
Emmanuel Gómez Riga Alvarado Verloren 119 / 121 40% 1 11.06.2027 -
Rostislav Soldatenko Torpedo Moscow Aktiv 103 / 97 40% 1 31.05.2027 -
Maeson King Barnsley Aktiv 100 / 119 40% 3 29.05.2027 -
Amadou Niang Al Ain Aktiv 114 / 123 40% 4 29.05.2027 -
Leandro Martins Benfica Aktiv 88 / 99 40% 4 26.05.2027 -
João Capucho Benfica Aktiv 93 / 100 40% 5 26.05.2027 -
Thiago Silvero Betis Aktiv 123 / 127 40% 2 26.05.2027 -
Halam Loboa Osasuna Aktiv 124 / 130 40% 5 21.05.2027 -
Massien Ghaddari Utrecht Aktiv 109 / 113 40% 4 21.05.2027 -
Eduardo Felicíssimo Sporting CP Aktiv 111 / 120 40% 7 21.05.2027 -
Eliás Montiel Atlético Madrid Abgelehnt 134 / 135 40% 6 20.05.2027 -
Yussif Saidu Zaragoza Aktiv 125 / 124 40% 2 20.05.2027 -
Tommaso Cecotti Carpi Aktiv 92 / 96 40% 6 19.05.2027 -
João Fonseca Benfica Aktiv 105 / 115 40% 9 18.05.2027 -
Christ Inao Oulaï Fiorentina Aktiv 130 / 140 40% 1 18.05.2027 Mehr Infos nötig
Karim Coulibaly RC Strasbourg Aktiv 119 / 126 40% 7 17.05.2027 -
Elson Mendes Kasimpasa Aktiv 81 / 89 40% 2 17.05.2027 -
Daniel Vernattus Metalist Aktiv 102 / 93 40% 2 16.05.2027 -
Dmitry Pestryakov Spartak Moscow Aktiv 119 / 114 40% 3 15.05.2027 -
Moncef Zekri Sporting CP Aktiv 99 / 111 40% 5 15.05.2027 -
Jason Chadli KV Oostende Aktiv 113 / 121 40% 2 15.05.2027 -
Alex Tóth Bournemouth Aktiv 122 / 127 40% 4 12.05.2027 -
Rhys Chadwick Burton Albion Aktiv 99 / 105 40% 2 12.05.2027 -
Tomás Pérez Porto Aktiv 121 / 126 40% 2 11.05.2027 -
Alfie Harrison Milton Keynes Dons Aktiv 96 / 105 40% 6 09.05.2027 -
Gonçalo Oliveira Benfica Aktiv 108 / 111 40% 2 09.05.2027 -
Kyllian Antonio RC Lens Aktiv 112 / 120 40% 6 08.05.2027 -
Amine Boukamir Charleroi Aktiv 98 / 102 40% 2 06.05.2027 -
Agustín De la Cuesta Sevilla Aktiv 108 / 117 40% 3 04.05.2027 -
Kirill Simonov Fakel Aktiv 82 / 109 40% 1 03.05.2027 -
Lennon Miller AC Milan Aktiv 130 / 133 40% 6 01.05.2027 -
Luka Vušković Chelsea Aktiv 142 / 144 40% 3 01.05.2027 -
Louay Trayi Al Wahda Aktiv 99 / 109 40% 3 30.04.2027 -
Teo Rodríguez Pagano San Lorenzo Aktiv 115 / 126 40% 1 29.04.2027 -
Jonathan De Irastorza Levante Aktiv 118 / 124 40% 12 17.04.2027 -
Juan Pablo De la Reta Getafe Aktiv 113 / 123 40% 4 15.04.2027 -
Bernardo Lima Porto Aktiv 91 / 102 40% 2 12.04.2027 -
Matías Gómez Talleres Aktiv 110 / 116 40% 1 02.04.2027 -
Sean Fusire Sheffield Wednesday Aktiv 107 / 105 40% 1 21.03.2027 -
Sergey Chernov Zenit Aktiv 71 / 80 40% 1 21.03.2027 -
German Ignatov Rostov Aktiv 87 / 91 40% 1 18.03.2027 -
Agustín Medina Athletic Bilbao Aktiv 122 / 121 40% 2 14.03.2027 -
Cathal Heffernan Harrogate Town Aktiv 80 / 92 40% 3 13.03.2027 -
Diego Rossi Forli Aktiv 83 / 93 40% 1 09.03.2027 -
Nicolas Sport Recife Aktiv 93 / 103 40% 1 02.03.2027 -
Per Kloosterboer Utrecht Aktiv 104 / 110 40% 2 23.02.2027 -
Lucas Mbamba Westerlo Aktiv 86 / 101 40% 1 23.02.2027 -
Veljko Milosavljević Newcastle United Aktiv 138 / 137 40% 3 22.02.2027 -
Juan Manuel Villalba Tigre Aktiv 115 / 126 40% 3 22.02.2027 -
Khauan Al Ain Aktiv 90 / 92 40% 3 10.02.2027 -
Surprise Manthosi Polokwane City Aktiv 88 / 102 40% 1 07.02.2027 -
Ignacio Ovando Rosario Central Aktiv 97 / 118 40% 2 27.01.2027 -
Sam Rak-Sakyi Stevenage Aktiv 102 / 109 40% 1 21.01.2027 -
Agustín Obregón River Plate Aktiv 113 / 121 40% 1 21.01.2027 -
Amir Alaa Al Ahly Aktiv 81 / 95 40% 2 13.01.2027 -
Ismaël Baouf Cambuur Aktiv 117 / 124 40% 4 26.12.2026 -
Octavio Ontivero Lanús Aktiv 107 / 118 40% 1 26.12.2026 -
Borges Kryvbas Aktiv 82 / 111 40% 1 21.12.2026 -
Illaijh de Ruijter ADO Den Haag Aktiv 107 / 116 40% 1 21.12.2026 -
Eyad El Askalany Rostov Aktiv 84 / 90 40% 3 16.12.2026 -
Rodrigo Dias Sporting CP Aktiv 102 / 99 40% 1 12.12.2026 -
Youssef Wael Zamalek Aktiv 84 / 89 40% 1 14.11.2026 -
João Muniz Sporting CP Aktiv 120 / 125 40% 3 13.11.2026 -
Roger Hinojo Espanyol Aktiv 106 / 110 40% 2 11.11.2026 -
Jacques Vasseur Chamois Niortais Aktiv 76 / 98 40% 1 11.11.2026 -
Ezra Mayers West Ham United Aktiv 107 / 127 40% 1 09.11.2026 -
Ângelo Al-Nassr Aktiv 126 / 130 40% 4 07.11.2026 -
Thiago Acosta River Plate Aktiv 105 / 108 40% 2 26.10.2026 -
Diego León Manchester United Aktiv 103 / 124 40% 1 18.10.2026 -
Víctor Reyes Deportes Tolima Aktiv 82 / 96 40% 1 16.10.2026 -
João Simões Sporting CP Aktiv 130 / 143 40% 1 14.10.2026 -
Alejo Fernández Temperley Aktiv 99 / 99 40% 1 12.10.2026 -
Alejo Gelsomino Gimnasia La Plata Aktiv 97 / 98 40% 1 06.10.2026 -
Ibrahim Khalfan Al Shaab Aktiv 95 / 88 40% 1 29.08.2026 -
Emmanuel Biumla Stade Rennais Aktiv 113 / 122 40% 1 28.08.2026 -
Momodou Jatta Al Jazira Aktiv 90 / 111 40% 1 28.08.2026 -
Miguel Romano Atletico Venezuela Aktiv 99 / 103 40% 1 25.08.2026 -
Solomon Tweh Al-Ra'ed Aktiv 112 / 104 40% 1 24.08.2026 -
Mauro Carrizo Atlético Tucumán Aktiv 92 / 104 40% 1 24.08.2026 -
Ahmed Khodary Zamalek Aktiv 91 / 95 40% 1 23.08.2026 -
Faisal Al Menhali Al Shabab Aktiv 115 / 132 40% 3 22.08.2026 -
Francisco Razzeto Sarmiento Aktiv 82 / 101 40% 1 20.08.2026 -
Thiago Martínez Defensa y Justicia Aktiv 99 / 113 40% 1 17.08.2026 -
Mobin Dehghan Al Ain Aktiv 99 / 100 40% 1 17.08.2026 -
Abdoulkarim Traoré Al Ain Aktiv 126 / 118 40% 1 13.08.2026 -
Ramiro Vitale Racing Club Aktiv 89 / 98 40% 1 11.08.2026 -
Kiano Dyer Chelsea Aktiv 107 / 110 40% 1 09.08.2026 -